Etusivu
METAR-TAF:

METAR-TAF

Lentoasemat :

Brenner Field

Falls City, Nebraska, Yhdysvallat

Leveyspiiri: 40-04-44N, Pituuspiiri: 095-35-31W, korkeus merenpinnasta: 300 m

Tämänhetkinen sää

Tämä raportti tehtiin 46 minuuttia sitten, kello 18.53 UTC
Tuuli 5 kn lännestä
Lämpötila 5°C
Kosteus 70%
Ilmanpaine 1029 hPa
Näkyvyys: 16.1 km
selkeää

METAR: KFNB 251853Z AUTO 26005KT 10SM CLR 05/00 A3040 RMK AO2 SLP302 T00500000

Aika: 13:39 (19:39 UTC)


TAF: puuttuu

Säähavainnot ja -ennusteet yli 4000 lentoasemalta (METAR- ja TAF-raportit).

Käytössä olevat sääasemat on merkitty karttaan keltaisilla ja punaisilla pisteillä.

Aseta hiiri pisteen päälle nähdäksesi sääaseman nimen.

Klikkaa sitten nähdäksesi säähavainnot ja -ennusteet.

Kartan vaihtaminen: klikkaa mustalla rastilla varustettuja vihreitä pisteitä, niin voit zoomata sisään; viivalla varustettua vihreää pistettä, niin voit zoomata ulos tai vihreitä nuolia, niin pääset viereisille kartoille.


METAR-TAF: